Forney's Hourly Summary for Monday, July 9, 2018
Hour Temp
(f)
RH
(%)
Solar Rad.
(MJ/m2)
Rainfall
(in)
Wind
(mph)
7/9/2018 12:00 AM 79 70 0 0 0.29
7/9/2018 1:00 AM 78 73 0 0 0.08
7/9/2018 2:00 AM 77 76 0 0 0
7/9/2018 3:00 AM 76 79 0 0 0.31
7/9/2018 4:00 AM 76 81 0 0 0.74
7/9/2018 5:00 AM 75 84 0 0 1.19
7/9/2018 6:00 AM 74 88 0 0 0.38
7/9/2018 7:00 AM 74 90 0.01 0 0
7/9/2018 8:00 AM 76 83 0.36 0 0.22
7/9/2018 9:00 AM 79 75 1.16 0 1.21
7/9/2018 10:00 AM 81 66 1.73 0 1.56
7/9/2018 11:00 AM 84 61 1.58 0 1.99
7/9/2018 12:00 PM 83 63 1.46 0 3.42
7/9/2018 1:00 PM 86 57 2.05 0 2.98
7/9/2018 2:00 PM 86 53 3.43 0 4.65
7/9/2018 3:00 PM 86 49 1.89 0 3.02
7/9/2018 4:00 PM 90 45 2.96 0 2.72
7/9/2018 5:00 PM 89 46 0.95 0 2.99
7/9/2018 6:00 PM 86 47 0.79 0 3.8
7/9/2018 7:00 PM 83 62 0.38 0 3.52
7/9/2018 8:00 PM 80 67 0.15 0 2.5
7/9/2018 9:00 PM 79 72 0.02 0 2.48
7/9/2018 10:00 PM 78 77 0 0 2.58
7/9/2018 11:00 PM 77 80 0 0 1.39
Data Summary 80 68 18.92 0.00 1.83